AAL615 KAUS-KDFW
Flight info
| Callsign | AAL615 |
|---|---|
| Flight time | 0h 40m |
| Altitude | 28000 |
| Route | ELOEL3 FORSS GUTZZ BOOVE7 |
| Aircraft | B38M/M-SDE1FGHILORVWXY/HB1 |
Departure
| Time | 2026-05-04 20:38 |
|---|---|
| Airport | Austin Bergstrom International Airport (KAUS) |
Arrival
| Time | 2026-05-04 21:19 |
|---|---|
| Airport | Dallas Fort Worth International Airport (KDFW) |
| Time | Latitude | Longitude | Altitude | Speed | Heading |
|---|---|---|---|---|---|
| 2026-05-04 20:20 | 30.20166 | -97.66902 | 530 ft | 0 kts | 21° |
| 2026-05-04 20:29 | 30.20163 | -97.66903 | 530 ft | 3 kts | 21° |
| 2026-05-04 20:29 | 30.20139 | -97.66915 | 530 ft | 4 kts | 25° |
| 2026-05-04 20:29 | 30.20115 | -97.66929 | 530 ft | 4 kts | 34° |
| 2026-05-04 20:29 | 30.20097 | -97.66949 | 530 ft | 4 kts | 65° |
| 2026-05-04 20:30 | 30.20093 | -97.66962 | 530 ft | 0 kts | 87° |
| 2026-05-04 20:34 | 30.20094 | -97.66960 | 530 ft | 1 kts | 87° |
| 2026-05-04 20:34 | 30.20094 | -97.66923 | 530 ft | 8 kts | 94° |
| 2026-05-04 20:35 | 30.20075 | -97.66825 | 530 ft | 17 kts | 104° |
| 2026-05-04 20:35 | 30.20032 | -97.66693 | 530 ft | 16 kts | 160° |
| 2026-05-04 20:35 | 30.19918 | -97.66675 | 530 ft | 17 kts | 147° |
| 2026-05-04 20:35 | 30.19909 | -97.66572 | 530 ft | 14 kts | 88° |
| 2026-05-04 20:36 | 30.19911 | -97.66451 | 530 ft | 16 kts | 89° |
| 2026-05-04 20:36 | 30.19914 | -97.66304 | 530 ft | 21 kts | 89° |
| 2026-05-04 20:36 | 30.19918 | -97.66113 | 530 ft | 26 kts | 88° |
| 2026-05-04 20:36 | 30.19940 | -97.65913 | 529 ft | 21 kts | 36° |
| 2026-05-04 20:37 | 30.20085 | -97.65908 | 529 ft | 22 kts | 359° |
| 2026-05-04 20:37 | 30.20239 | -97.65912 | 530 ft | 24 kts | 358° |
| 2026-05-04 20:37 | 30.20369 | -97.65875 | 530 ft | 18 kts | 70° |
| 2026-05-04 20:37 | 30.20309 | -97.65788 | 530 ft | 18 kts | 178° |
| 2026-05-04 20:38 | 30.19930 | -97.65780 | 528 ft | 97 kts | 179° |
| 2026-05-04 20:38 | 30.18994 | -97.65756 | 546 ft | 168 kts | 179° |
| 2026-05-04 20:38 | 30.17696 | -97.65725 | 1119 ft | 194 kts | 180° |
| 2026-05-04 20:38 | 30.16371 | -97.65677 | 2355 ft | 192 kts | 178° |
| 2026-05-04 20:39 | 30.14959 | -97.65624 | 2993 ft | 214 kts | 180° |
| 2026-05-04 20:39 | 30.13465 | -97.65743 | 3751 ft | 219 kts | 199° |
| 2026-05-04 20:39 | 30.12183 | -97.66767 | 4780 ft | 230 kts | 229° |
| 2026-05-04 20:39 | 30.11507 | -97.68462 | 5652 ft | 247 kts | 256° |
| 2026-05-04 20:40 | 30.11256 | -97.70490 | 6410 ft | 263 kts | 267° |
| 2026-05-04 20:40 | 30.11592 | -97.72527 | 7468 ft | 261 kts | 293° |
| 2026-05-04 20:40 | 30.12665 | -97.74255 | 8408 ft | 271 kts | 315° |
| 2026-05-04 20:40 | 30.12909 | -97.74508 | 8574 ft | 273 kts | 318° |
| 2026-05-04 20:41 | 30.14604 | -97.75548 | 9650 ft | 280 kts | 342° |
| 2026-05-04 20:41 | 30.16572 | -97.75830 | 10528 ft | 291 kts | 350° |
| 2026-05-04 20:41 | 30.18632 | -97.76226 | 11007 ft | 310 kts | 346° |
| 2026-05-04 20:41 | 30.20828 | -97.76670 | 11426 ft | 330 kts | 346° |
| 2026-05-04 20:42 | 30.23118 | -97.77108 | 11970 ft | 343 kts | 347° |
| 2026-05-04 20:42 | 30.25495 | -97.77547 | 12720 ft | 347 kts | 347° |
| 2026-05-04 20:42 | 30.27925 | -97.77980 | 13600 ft | 350 kts | 346° |
| 2026-05-04 20:42 | 30.30314 | -97.78398 | 14325 ft | 353 kts | 346° |
| 2026-05-04 20:43 | 30.32751 | -97.78820 | 15050 ft | 356 kts | 346° |
| 2026-05-04 20:43 | 30.35203 | -97.79243 | 15741 ft | 358 kts | 346° |
| 2026-05-04 20:43 | 30.37677 | -97.79668 | 16483 ft | 360 kts | 346° |
| 2026-05-04 20:43 | 30.40165 | -97.80096 | 17157 ft | 362 kts | 346° |
| 2026-05-04 20:44 | 30.42656 | -97.80524 | 17903 ft | 364 kts | 346° |
| 2026-05-04 20:44 | 30.45170 | -97.80957 | 18571 ft | 367 kts | 345° |
| 2026-05-04 20:44 | 30.47712 | -97.81394 | 19145 ft | 370 kts | 345° |
| 2026-05-04 20:44 | 30.50268 | -97.81834 | 19682 ft | 372 kts | 345° |
| 2026-05-04 20:45 | 30.52838 | -97.82277 | 20231 ft | 374 kts | 345° |
| 2026-05-04 20:45 | 30.55423 | -97.82722 | 20756 ft | 377 kts | 344° |
| 2026-05-04 20:45 | 30.58027 | -97.83170 | 21278 ft | 379 kts | 344° |
| 2026-05-04 20:45 | 30.60609 | -97.83614 | 21768 ft | 382 kts | 344° |
| 2026-05-04 20:46 | 30.63251 | -97.84069 | 22267 ft | 384 kts | 343° |
| 2026-05-04 20:46 | 30.65905 | -97.84526 | 22754 ft | 387 kts | 343° |
| 2026-05-04 20:46 | 30.68589 | -97.84988 | 22927 ft | 390 kts | 343° |
| 2026-05-04 20:46 | 30.71270 | -97.85449 | 22946 ft | 389 kts | 343° |
| 2026-05-04 20:47 | 30.73940 | -97.85941 | 22949 ft | 385 kts | 339° |
| 2026-05-04 20:47 | 30.76475 | -97.86838 | 22954 ft | 381 kts | 335° |
| 2026-05-04 20:47 | 30.79007 | -97.87771 | 22943 ft | 382 kts | 335° |
| 2026-05-04 20:47 | 30.81537 | -97.88708 | 22935 ft | 382 kts | 335° |
| 2026-05-04 20:48 | 30.84066 | -97.89648 | 22930 ft | 382 kts | 335° |
| 2026-05-04 20:48 | 30.86602 | -97.90591 | 22927 ft | 382 kts | 335° |
| 2026-05-04 20:48 | 30.89106 | -97.91524 | 22921 ft | 382 kts | 335° |
| 2026-05-04 20:48 | 30.91540 | -97.92660 | 22915 ft | 374 kts | 326° |
| 2026-05-04 20:49 | 30.93872 | -97.94028 | 22933 ft | 376 kts | 327° |
| 2026-05-04 20:49 | 30.96210 | -97.95395 | 22931 ft | 376 kts | 327° |
| 2026-05-04 20:49 | 30.98546 | -97.96766 | 22926 ft | 376 kts | 327° |
| 2026-05-04 20:49 | 31.00883 | -97.98141 | 22942 ft | 376 kts | 326° |
| 2026-05-04 20:50 | 31.03223 | -97.99518 | 22932 ft | 376 kts | 326° |
| 2026-05-04 20:50 | 31.05559 | -98.00894 | 22926 ft | 376 kts | 326° |
| 2026-05-04 20:50 | 31.07898 | -98.02273 | 22913 ft | 376 kts | 326° |
| 2026-05-04 20:50 | 31.10239 | -98.03653 | 22911 ft | 376 kts | 326° |
| 2026-05-04 20:51 | 31.12578 | -98.05034 | 22915 ft | 376 kts | 326° |
| 2026-05-04 20:51 | 31.14874 | -98.06389 | 22914 ft | 376 kts | 326° |
| 2026-05-04 20:51 | 31.17263 | -98.07671 | 22893 ft | 383 kts | 335° |
| 2026-05-04 20:51 | 31.19883 | -98.08390 | 22923 ft | 387 kts | 339° |
| 2026-05-04 20:52 | 31.22504 | -98.09091 | 22904 ft | 387 kts | 339° |
| 2026-05-04 20:52 | 31.25133 | -98.09778 | 22908 ft | 387 kts | 339° |
| 2026-05-04 20:52 | 31.27762 | -98.10454 | 22937 ft | 386 kts | 340° |
| 2026-05-04 20:52 | 31.30386 | -98.11126 | 22901 ft | 385 kts | 340° |
| 2026-05-04 20:53 | 31.33002 | -98.11794 | 22904 ft | 385 kts | 340° |
| 2026-05-04 20:53 | 31.35618 | -98.12463 | 22896 ft | 385 kts | 340° |
| 2026-05-04 20:53 | 31.38231 | -98.13130 | 22895 ft | 385 kts | 340° |
| 2026-05-04 20:53 | 31.40883 | -98.13663 | 22874 ft | 393 kts | 349° |
| 2026-05-04 20:54 | 31.43652 | -98.13437 | 22890 ft | 402 kts | 357° |
| 2026-05-04 20:54 | 31.46429 | -98.13072 | 22883 ft | 402 kts | 357° |
| 2026-05-04 20:54 | 31.49209 | -98.12685 | 22879 ft | 402 kts | 358° |
| 2026-05-04 20:54 | 31.51985 | -98.12282 | 22879 ft | 402 kts | 358° |
| 2026-05-04 20:55 | 31.54726 | -98.11875 | 22903 ft | 402 kts | 358° |
| 2026-05-04 20:55 | 31.57498 | -98.11460 | 22886 ft | 401 kts | 358° |
| 2026-05-04 20:55 | 31.60264 | -98.11044 | 22872 ft | 401 kts | 358° |
| 2026-05-04 20:55 | 31.63018 | -98.10626 | 22866 ft | 401 kts | 359° |
| 2026-05-04 20:56 | 31.65749 | -98.09695 | 22892 ft | 419 kts | 16° |
| 2026-05-04 20:56 | 31.68331 | -98.08050 | 22910 ft | 424 kts | 20° |
| 2026-05-04 20:56 | 31.70899 | -98.06348 | 22896 ft | 424 kts | 20° |
| 2026-05-04 20:56 | 31.73460 | -98.04625 | 22909 ft | 424 kts | 20° |
| 2026-05-04 20:57 | 31.76014 | -98.02887 | 22894 ft | 424 kts | 21° |
| 2026-05-04 20:57 | 31.78564 | -98.01143 | 22893 ft | 424 kts | 21° |
| 2026-05-04 20:57 | 31.81116 | -97.99393 | 22889 ft | 424 kts | 21° |
| 2026-05-04 20:57 | 31.83661 | -97.97647 | 22903 ft | 423 kts | 21° |
| 2026-05-04 20:58 | 31.86189 | -97.95919 | 22889 ft | 421 kts | 20° |
| 2026-05-04 20:58 | 31.88743 | -97.94239 | 22877 ft | 420 kts | 19° |
| 2026-05-04 20:58 | 31.91294 | -97.92559 | 22867 ft | 420 kts | 19° |
| 2026-05-04 20:58 | 31.93848 | -97.90872 | 22843 ft | 420 kts | 19° |
| 2026-05-04 20:59 | 31.96400 | -97.89185 | 22861 ft | 421 kts | 19° |
| 2026-05-04 20:59 | 31.98949 | -97.87498 | 22858 ft | 420 kts | 19° |
| 2026-05-04 20:59 | 32.01499 | -97.85810 | 22860 ft | 420 kts | 19° |
| 2026-05-04 20:59 | 32.04050 | -97.84119 | 22863 ft | 421 kts | 19° |
| 2026-05-04 21:00 | 32.06599 | -97.82429 | 22857 ft | 420 kts | 19° |
| 2026-05-04 21:00 | 32.09147 | -97.80739 | 22859 ft | 420 kts | 19° |
| 2026-05-04 21:00 | 32.11663 | -97.79069 | 22883 ft | 420 kts | 19° |
| 2026-05-04 21:00 | 32.14218 | -97.77372 | 22858 ft | 421 kts | 19° |
| 2026-05-04 21:01 | 32.16768 | -97.75671 | 22855 ft | 421 kts | 20° |
| 2026-05-04 21:01 | 32.19318 | -97.73969 | 22843 ft | 421 kts | 19° |
| 2026-05-04 21:01 | 32.21871 | -97.72264 | 22845 ft | 421 kts | 19° |
| 2026-05-04 21:01 | 32.24458 | -97.70681 | 22848 ft | 417 kts | 16° |
| 2026-05-04 21:02 | 32.27056 | -97.69154 | 22856 ft | 418 kts | 17° |
| 2026-05-04 21:02 | 32.29652 | -97.67612 | 22832 ft | 418 kts | 17° |
| 2026-05-04 21:02 | 32.32249 | -97.66064 | 22847 ft | 418 kts | 17° |
| 2026-05-04 21:02 | 32.34826 | -97.64525 | 22849 ft | 411 kts | 17° |
| 2026-05-04 21:03 | 32.37357 | -97.62985 | 22848 ft | 410 kts | 20° |
| 2026-05-04 21:03 | 32.39650 | -97.60895 | 22618 ft | 425 kts | 34° |
| 2026-05-04 21:03 | 32.41812 | -97.58438 | 21600 ft | 436 kts | 36° |
| 2026-05-04 21:03 | 32.44023 | -97.55923 | 20671 ft | 444 kts | 37° |
| 2026-05-04 21:04 | 32.46241 | -97.53390 | 19906 ft | 438 kts | 37° |
| 2026-05-04 21:04 | 32.48409 | -97.50914 | 19200 ft | 428 kts | 37° |
| 2026-05-04 21:04 | 32.50498 | -97.48528 | 18529 ft | 418 kts | 38° |
| 2026-05-04 21:04 | 32.52571 | -97.46159 | 17871 ft | 410 kts | 38° |
| 2026-05-04 21:05 | 32.54602 | -97.43837 | 17150 ft | 402 kts | 38° |
| 2026-05-04 21:05 | 32.56601 | -97.41551 | 16453 ft | 394 kts | 38° |
| 2026-05-04 21:05 | 32.58555 | -97.39312 | 15782 ft | 387 kts | 38° |
| 2026-05-04 21:05 | 32.60479 | -97.37108 | 15137 ft | 381 kts | 39° |
| 2026-05-04 21:06 | 32.62369 | -97.34941 | 14501 ft | 374 kts | 39° |
| 2026-05-04 21:06 | 32.64227 | -97.32811 | 13918 ft | 368 kts | 39° |
| 2026-05-04 21:06 | 32.66033 | -97.30737 | 13296 ft | 363 kts | 39° |
| 2026-05-04 21:06 | 32.67830 | -97.28673 | 12760 ft | 355 kts | 39° |
| 2026-05-04 21:07 | 32.69573 | -97.26671 | 12519 ft | 343 kts | 39° |
| 2026-05-04 21:07 | 32.71261 | -97.24731 | 12382 ft | 333 kts | 39° |
| 2026-05-04 21:07 | 32.72894 | -97.22852 | 12313 ft | 321 kts | 39° |
| 2026-05-04 21:07 | 32.74477 | -97.21031 | 12195 ft | 312 kts | 39° |
| 2026-05-04 21:08 | 32.76010 | -97.19266 | 12089 ft | 302 kts | 39° |
| 2026-05-04 21:08 | 32.77532 | -97.17629 | 12000 ft | 286 kts | 27° |
| 2026-05-04 21:08 | 32.79309 | -97.16846 | 11787 ft | 265 kts | 358° |
| 2026-05-04 21:08 | 32.80510 | -97.16802 | 11618 ft | 258 kts | 354° |
| 2026-05-04 21:09 | 32.82283 | -97.16756 | 11446 ft | 252 kts | 354° |
| 2026-05-04 21:09 | 32.84037 | -97.16716 | 11243 ft | 252 kts | 354° |
| 2026-05-04 21:09 | 32.85793 | -97.16684 | 10922 ft | 252 kts | 354° |
| 2026-05-04 21:09 | 32.87543 | -97.16657 | 10571 ft | 251 kts | 353° |
| 2026-05-04 21:10 | 32.89293 | -97.16633 | 10173 ft | 251 kts | 354° |
| 2026-05-04 21:10 | 32.91039 | -97.16610 | 9784 ft | 251 kts | 354° |
| 2026-05-04 21:10 | 32.92784 | -97.16588 | 9350 ft | 251 kts | 354° |
| 2026-05-04 21:10 | 32.94530 | -97.16567 | 8969 ft | 249 kts | 354° |
| 2026-05-04 21:11 | 32.96265 | -97.16547 | 8575 ft | 249 kts | 354° |
| 2026-05-04 21:11 | 32.97999 | -97.16527 | 8177 ft | 248 kts | 353° |
| 2026-05-04 21:11 | 32.99720 | -97.16507 | 7781 ft | 247 kts | 354° |
| 2026-05-04 21:11 | 33.01440 | -97.16487 | 7382 ft | 247 kts | 354° |
| 2026-05-04 21:12 | 33.03139 | -97.16469 | 6985 ft | 247 kts | 354° |
| 2026-05-04 21:12 | 33.04858 | -97.16449 | 6626 ft | 247 kts | 355° |
| 2026-05-04 21:12 | 33.06600 | -97.16429 | 6239 ft | 248 kts | 354° |
| 2026-05-04 21:12 | 33.08294 | -97.16409 | 5896 ft | 245 kts | 354° |
| 2026-05-04 21:13 | 33.10002 | -97.16339 | 5462 ft | 250 kts | 4° |
| 2026-05-04 21:13 | 33.11610 | -97.15507 | 5106 ft | 257 kts | 36° |
| 2026-05-04 21:13 | 33.12709 | -97.13834 | 4712 ft | 259 kts | 68° |
| 2026-05-04 21:13 | 33.13004 | -97.11767 | 4294 ft | 250 kts | 101° |
| 2026-05-04 21:14 | 33.12459 | -97.09908 | 4042 ft | 230 kts | 128° |
| 2026-05-04 21:14 | 33.11561 | -97.08355 | 3689 ft | 225 kts | 133° |
| 2026-05-04 21:14 | 33.10643 | -97.06893 | 3453 ft | 215 kts | 138° |
| 2026-05-04 21:14 | 33.09488 | -97.05917 | 3158 ft | 198 kts | 162° |
| 2026-05-04 21:15 | 33.08184 | -97.05501 | 3013 ft | 194 kts | 174° |
| 2026-05-04 21:15 | 33.06829 | -97.05389 | 3013 ft | 197 kts | 180° |
| 2026-05-04 21:15 | 33.05457 | -97.05388 | 3024 ft | 196 kts | 182° |
| 2026-05-04 21:15 | 33.04103 | -97.05400 | 2980 ft | 193 kts | 182° |
| 2026-05-04 21:16 | 33.02770 | -97.05407 | 2788 ft | 188 kts | 181° |
| 2026-05-04 21:16 | 33.01479 | -97.05413 | 2551 ft | 182 kts | 181° |
| 2026-05-04 21:16 | 33.00264 | -97.05420 | 2321 ft | 170 kts | 181° |
| 2026-05-04 21:16 | 32.99135 | -97.05425 | 2124 ft | 156 kts | 180° |
| 2026-05-04 21:17 | 32.98075 | -97.05430 | 1912 ft | 151 kts | 180° |
| 2026-05-04 21:17 | 32.97034 | -97.05435 | 1752 ft | 148 kts | 181° |
| 2026-05-04 21:17 | 32.96014 | -97.05437 | 1539 ft | 147 kts | 180° |
| 2026-05-04 21:17 | 32.95025 | -97.05448 | 1357 ft | 134 kts | 179° |
| 2026-05-04 21:18 | 32.94121 | -97.05447 | 1166 ft | 128 kts | 181° |
| 2026-05-04 21:18 | 32.93250 | -97.05458 | 959 ft | 127 kts | 180° |
| 2026-05-04 21:18 | 32.92393 | -97.05456 | 779 ft | 121 kts | 180° |
| 2026-05-04 21:18 | 32.91536 | -97.05469 | 657 ft | 127 kts | 179° |
| 2026-05-04 21:19 | 32.90727 | -97.05468 | 619 ft | 97 kts | 180° |
| 2026-05-04 21:19 | 32.90255 | -97.05470 | 608 ft | 45 kts | 179° |
| 2026-05-04 21:19 | 32.90116 | -97.05416 | 612 ft | 15 kts | 89° |
| 2026-05-04 21:19 | 32.90117 | -97.05253 | 603 ft | 24 kts | 90° |
| 2026-05-04 21:20 | 32.90115 | -97.05042 | 601 ft | 27 kts | 91° |
| 2026-05-04 21:20 | 32.90115 | -97.04877 | 601 ft | 18 kts | 89° |
| 2026-05-04 21:20 | 32.90168 | -97.04763 | 599 ft | 19 kts | 4° |
| 2026-05-04 21:20 | 32.90303 | -97.04762 | 599 ft | 21 kts | 360° |
| 2026-05-04 21:21 | 32.90451 | -97.04761 | 600 ft | 22 kts | 0° |
| 2026-05-04 21:21 | 32.90611 | -97.04761 | 600 ft | 24 kts | 0° |
| 2026-05-04 21:21 | 32.90785 | -97.04760 | 600 ft | 26 kts | 0° |
| 2026-05-04 21:21 | 32.90905 | -97.04731 | 604 ft | 12 kts | 59° |
| 2026-05-04 21:22 | 32.90908 | -97.04617 | 601 ft | 16 kts | 91° |
| 2026-05-04 21:22 | 32.90907 | -97.04480 | 602 ft | 9 kts | 90° |
| 2026-05-04 21:22 | 32.90907 | -97.04411 | 605 ft | 8 kts | 89° |
| 2026-05-04 21:22 | 32.90907 | -97.04308 | 611 ft | 18 kts | 90° |
| 2026-05-04 21:23 | 32.90907 | -97.04160 | 612 ft | 17 kts | 91° |
| 2026-05-04 21:23 | 32.90905 | -97.03987 | 612 ft | 22 kts | 90° |
| 2026-05-04 21:23 | 32.90904 | -97.03845 | 610 ft | 17 kts | 90° |
| 2026-05-04 21:23 | 32.90904 | -97.03675 | 594 ft | 19 kts | 91° |
| 2026-05-04 21:24 | 32.90904 | -97.03533 | 589 ft | 18 kts | 90° |
| 2026-05-04 21:24 | 32.90903 | -97.03372 | 588 ft | 21 kts | 90° |
| 2026-05-04 21:24 | 32.90862 | -97.03307 | 588 ft | 10 kts | 178° |
| 2026-05-04 21:24 | 32.90765 | -97.03309 | 588 ft | 19 kts | 180° |
| 2026-05-04 21:25 | 32.90614 | -97.03310 | 587 ft | 22 kts | 181° |
| 2026-05-04 21:25 | 32.90475 | -97.03313 | 587 ft | 20 kts | 180° |
| 2026-05-04 21:25 | 32.90328 | -97.03312 | 587 ft | 22 kts | 181° |
| 2026-05-04 21:25 | 32.90172 | -97.03314 | 587 ft | 22 kts | 180° |
| 2026-05-04 21:26 | 32.90109 | -97.03378 | 589 ft | 13 kts | 266° |
| 2026-05-04 21:26 | 32.90111 | -97.03492 | 589 ft | 15 kts | 271° |
| 2026-05-04 21:26 | 32.90111 | -97.03622 | 589 ft | 17 kts | 270° |
| 2026-05-04 21:26 | 32.90116 | -97.03712 | 589 ft | 8 kts | 293° |
| 2026-05-04 21:27 | 32.90159 | -97.03735 | 589 ft | 6 kts | 352° |
| 2026-05-04 21:27 | 32.90179 | -97.03738 | 589 ft | 1 kts | 353° |